Flight Track Log - Related Links

Times and Time Zones

All times are in EDT time to prevent confusion due to time zone crossing. See the SWA525 flight status page for this flight to view local times or setup timezone preferences in your user account.


Time Position Orientation Groundspeed Altitude Reporting Facility
EDT Latitude Longitude Course Direction KTS MPH feet Rate Location/Type
Wed 08:35:52 PM 28.3667 -81.3500 233° Southwest 224 258 3,000  Level Orlando TRACON
Wed 08:36:58 PM 28.3500 -81.4167 254° West 239 275 5,300 2,619 Climbing Orlando TRACON
Wed 08:37:58 PM 28.3500 -81.5000 270° West 277 319 8,500 2,700 Climbing Orlando TRACON
Wed 08:38:58 PM 28.3500 -81.6000 270° West 283 326 10,700 2,211 Climbing Orlando TRACON
Wed 08:40:00 PM 28.4167 -81.9824 270° West  Level FlightAware Approximate
Wed 08:41:27 PM 28.3419 -81.8736 268° West 361 415 16,200  Level Jacksonville Center
Wed 08:42:27 PM 28.3428 -81.9800 271° West 372 428 18,600 2,100 Climbing Jacksonville Center
Wed 08:43:27 PM 28.3417 -82.1000 269° West 372 428 20,400 2,050 Climbing Jacksonville Center
Wed 08:44:27 PM 28.3631 -82.2178 282° West 377 434 22,700 2,000 Climbing Jacksonville Center
Wed 08:45:27 PM 28.4428 -82.3000 318° Northwest 359 413 24,400 2,100 Climbing Jacksonville Center
Wed 08:46:27 PM 28.5369 -82.3703 327° Northwest 369 425 26,900 1,900 Climbing Jacksonville Center
Wed 08:47:27 PM 28.6292 -82.4336 329° Northwest 380 437 28,200 1,150 Climbing Jacksonville Center
Wed 08:48:27 PM 28.7169 -82.5044 325° Northwest 386 444 29,200 1,050 Climbing Jacksonville Center
Wed 08:49:27 PM 28.8131 -82.5728 328° Northwest 391 450 30,300 1,300 Climbing Jacksonville Center
Wed 08:50:27 PM 28.9072 -82.6436 327° Northwest 403 464 31,800 1,550 Climbing Jacksonville Center
Wed 08:51:27 PM 29.0014 -82.7144 327° Northwest 403 464 33,400 1,600 Climbing Jacksonville Center
Wed 08:52:27 PM 29.0911 -82.7808 327° Northwest 395 455 35,000 1,250 Climbing Jacksonville Center
Wed 08:53:27 PM 29.1808 -82.8497 326° Northwest 395 455 35,900 500 Climbing Jacksonville Center
Wed 08:54:27 PM 29.2728 -82.9189 327° Northwest 395 455 36,000 50 Climbing Jacksonville Center
Wed 08:55:27 PM 29.3647 -82.9856 328° Northwest 395 455 36,000  Level Jacksonville Center
Wed 08:56:27 PM 29.4542 -83.0547 326° Northwest 395 455 36,000  Level Jacksonville Center
Wed 08:57:27 PM 29.5564 -83.1336 326° Northwest 400 460 36,000  Level Jacksonville Center
Wed 08:58:27 PM 29.6503 -83.2033 327° Northwest 397 457 36,000  Level Jacksonville Center
Wed 08:59:27 PM 29.7294 -83.2656 326° Northwest 402 463 36,000  Level Jacksonville Center
Wed 09:00:27 PM 29.8314 -83.3403 328° Northwest 396 456 36,000  Level Jacksonville Center
Wed 09:01:27 PM 29.9231 -83.4078 327° Northwest 396 456 36,000  Level Jacksonville Center
Wed 09:02:27 PM 30.0147 -83.4803 326° Northwest 396 456 36,000  Level Jacksonville Center
Wed 09:03:27 PM 30.1042 -83.5481 327° Northwest 391 450 36,000  Level Jacksonville Center
Wed 09:04:27 PM 30.1956 -83.6158 327° Northwest 391 450 36,000  Level Jacksonville Center
Wed 09:05:27 PM 30.2850 -83.6864 326° Northwest 391 450 36,000  Level Jacksonville Center
Wed 09:06:27 PM 30.3742 -83.7544 327° Northwest 391 450 36,000  Level Jacksonville Center
Wed 09:07:27 PM 30.4636 -83.8228 327° Northwest 391 450 36,000  Level Jacksonville Center
Wed 09:08:27 PM 30.5508 -83.8911 326° Northwest 391 450 36,000  Level Jacksonville Center
Wed 09:09:27 PM 30.6297 -83.9525 326° Northwest 386 444 36,000  Level Jacksonville Center
Wed 09:10:27 PM 30.7167 -84.0211 326° Northwest 381 438 36,000  Level Jacksonville Center
Wed 09:11:27 PM 30.8058 -84.0897 327° Northwest 381 438 36,000  Level Jacksonville Center
Wed 09:12:27 PM 30.8928 -84.1564 327° Northwest 376 433 36,000  Level Jacksonville Center
Wed 09:13:27 PM 30.9778 -84.2228 326° Northwest 376 433 36,000  Level Jacksonville Center
Wed 09:14:27 PM 31.0669 -84.2944 325° Northwest 376 433 36,000  Level Jacksonville Center
Wed 09:15:27 PM 31.1517 -84.3614 326° Northwest 376 433 36,000  Level Jacksonville Center
Wed 09:16:27 PM 31.2364 -84.4281 326° Northwest 376 433 36,000  Level Jacksonville Center
Wed 09:18:17 PM 31.3950 -84.5544 326° Northwest 384 442 36,000  Level Atlanta Center
Wed 09:19:17 PM 31.4822 -84.6233 326° Northwest 379 436 36,000  Level Atlanta Center
Wed 09:20:17 PM 31.5717 -84.6944 326° Northwest 379 436 36,000  Level Atlanta Center
Wed 09:21:17 PM 31.6611 -84.7636 327° Northwest 379 436 36,000  Level Atlanta Center
Wed 09:22:17 PM 31.7483 -84.8350 325° Northwest 379 436 36,000  Level Atlanta Center
Wed 09:23:17 PM 31.8397 -84.9067 326° Northwest 379 436 36,000  Level Atlanta Center
Wed 09:24:17 PM 31.9331 -84.9811 326° Northwest 384 442 36,000  Level Atlanta Center
Wed 09:25:17 PM 32.0242 -85.0531 326° Northwest 389 448 36,000  Level Atlanta Center
Wed 09:26:17 PM 32.1114 -85.1253 325° Northwest 394 453 36,000  Level Atlanta Center
Wed 09:27:17 PM 32.2025 -85.1950 327° Northwest 394 453 36,000  Level Atlanta Center
Wed 09:29:00 PM 32.3470 -85.3114 326° Northwest  Level FlightAware Approximate
Wed 09:30:17 PM 32.4736 -85.4128 326° Northwest 399 459 36,000  Level Atlanta Center
Wed 09:31:17 PM 32.5647 -85.4881 325° Northwest 397 457 36,000  Level Atlanta Center
Wed 09:32:17 PM 32.6536 -85.5611 325° Northwest 397 457 36,000  Level Atlanta Center
Wed 09:33:17 PM 32.7569 -85.6444 326° Northwest 398 458 36,000  Level Atlanta Center
Wed 09:34:17 PM 32.8436 -85.7175 325° Northwest 393 452 36,000  Level Atlanta Center
Wed 09:35:17 PM 32.9344 -85.7911 326° Northwest 393 452 36,000  Level Atlanta Center
Wed 09:36:17 PM 33.0231 -85.8647 325° Northwest 393 452 36,000  Level Atlanta Center
Wed 09:37:17 PM 33.1117 -85.9361 326° Northwest 393 452 36,000  Level Atlanta Center
Wed 09:38:17 PM 33.2025 -86.0125 325° Northwest 393 452 36,000  Level Atlanta Center
Wed 09:39:17 PM 33.2928 -86.0942 323° Northwest 393 452 36,000  Level Atlanta Center
Wed 09:40:17 PM 33.3836 -86.1608 329° Northwest 398 458 36,000  Level Atlanta Center
Wed 09:41:17 PM 33.4742 -86.2403 324° Northwest 398 458 36,000  Level Atlanta Center
Wed 09:42:17 PM 33.5625 -86.3147 325° Northwest 398 458 36,000  Level Atlanta Center
Wed 09:43:17 PM 33.6406 -86.3794 325° Northwest 393 452 36,000  Level Atlanta Center
Wed 09:44:17 PM 33.7289 -86.4542 325° Northwest 393 452 36,000  Level Atlanta Center
Wed 09:45:17 PM 33.8172 -86.5292 325° Northwest 393 452 36,000  Level Atlanta Center
Wed 09:46:17 PM 33.9053 -86.6042 325° Northwest 393 452 36,000  Level Atlanta Center
Wed 09:48:21 PM 34.0936 -86.7681 324° Northwest 389 448 36,000  Level Memphis Center
Wed 09:49:21 PM 34.1814 -86.8422 325° Northwest 384 442 36,000  Level Memphis Center
Wed 09:50:21 PM 34.2581 -86.9042 326° Northwest 384 442 36,000  Level Memphis Center
Wed 09:51:21 PM 34.3461 -86.9864 322° Northwest 389 448 36,000  Level Memphis Center
Wed 09:52:21 PM 34.4333 -87.0533 328° Northwest 384 442 36,000  Level Memphis Center
Wed 09:53:21 PM 34.5167 -87.1308 323° Northwest 384 442 36,000  Level Memphis Center
Wed 09:54:21 PM 34.6019 -87.2033 325° Northwest 384 442 36,000  Level Memphis Center
Wed 09:55:21 PM 34.6875 -87.2808 323° Northwest 384 442 36,000  Level Memphis Center
Wed 09:56:21 PM 34.7792 -87.3583 325° Northwest 375 432 36,000  Level Memphis Center
Wed 09:57:21 PM 34.8644 -87.4339 324° Northwest 375 432 36,000  Level Memphis Center
Wed 09:58:21 PM 34.9494 -87.5069 325° Northwest 375 432 36,000  Level Memphis Center
Wed 09:59:21 PM 35.0306 -87.5803 323° Northwest 375 432 36,000  Level Memphis Center
Wed 10:00:21 PM 35.1133 -87.6536 324° Northwest 375 432 36,000  Level Memphis Center
Wed 10:01:21 PM 35.1919 -87.7172 327° Northwest 375 432 36,000  Level Memphis Center
Wed 10:02:21 PM 35.2750 -87.7933 323° Northwest 375 432 36,000  Level Memphis Center
Wed 10:03:21 PM 35.3556 -87.8622 325° Northwest 370 426 36,000  Level Memphis Center
Wed 10:04:21 PM 35.4364 -87.9414 321° Northwest 370 426 36,000  Level Memphis Center
Wed 10:05:21 PM 35.5192 -88.0128 325° Northwest 370 426 36,000  Level Memphis Center
Wed 10:06:21 PM 35.6017 -88.0844 325° Northwest 370 426 36,000  Level Memphis Center
Wed 10:07:21 PM 35.6928 -88.1586 327° Northwest 363 418 36,000  Level Memphis Center
Wed 10:08:21 PM 35.7753 -88.2308 325° Northwest 363 418 36,000  Level Memphis Center
Wed 10:09:21 PM 35.8581 -88.3056 324° Northwest 363 418 36,000  Level Memphis Center
Wed 10:10:21 PM 35.9383 -88.3803 323° Northwest 363 418 36,000  Level Memphis Center
Wed 10:11:21 PM 36.0189 -88.4553 323° Northwest 363 418 36,000  Level Memphis Center
Wed 10:12:21 PM 36.1014 -88.5281 325° Northwest 363 418 36,000  Level Memphis Center
Wed 10:13:21 PM 36.1817 -88.6008 324° Northwest 363 418 36,000  Level Memphis Center
Wed 10:14:21 PM 36.2619 -88.6761 323° Northwest 363 418 36,000  Level Memphis Center
Wed 10:15:22 PM 36.3442 -88.7467 325° Northwest 363 418 36,000 -400 Level Memphis Center
Wed 10:16:21 PM 36.4242 -88.8225 323° Northwest 363 418 35,200 -655 Descending Memphis Center
Wed 10:17:21 PM 36.5064 -88.8983 323° Northwest 363 418 34,700 -600 Descending Memphis Center
Wed 10:18:21 PM 36.5886 -88.9744 323° Northwest 363 418 34,000 -350 Descending Memphis Center
Wed 10:19:21 PM 36.6622 -89.0456 322° Northwest 368 423 34,000  Level Memphis Center
Wed 10:20:21 PM 36.7444 -89.1167 325° Northwest 368 423 34,000  Level Memphis Center
Wed 10:21:21 PM 36.8200 -89.1906 322° Northwest 363 418 34,000  Level Memphis Center
Wed 10:22:21 PM 36.8978 -89.2647 323° Northwest 363 418 34,000 -964 Level Memphis Center
Wed 10:24:34 PM 37.0725 -89.4269 323° Northwest 358 412 30,900 -1,763 Descending Kansas City Center
Wed 10:25:35 PM 37.1539 -89.5036 323° Northwest 365 420 28,300 -2,430 Descending Kansas City Center
Wed 10:26:35 PM 37.2319 -89.5753 324° Northwest 354 407 26,000 -1,140 Descending Kansas City Center
Wed 10:27:36 PM 37.3244 -89.6272 336° Northwest 360 414 26,000  Level Kansas City Center
Wed 10:28:37 PM 37.4183 -89.6767 337° Northwest 365 420 26,000  Level Kansas City Center
Wed 10:29:37 PM 37.5097 -89.7261 337° Northwest 361 415 26,000 -49 Level Kansas City Center
Wed 10:30:39 PM 37.6039 -89.7786 336° Northwest 350 403 25,900 -1,230 Descending Kansas City Center
Wed 10:31:39 PM 37.6928 -89.8269 337° Northwest 348 400 23,500 -2,281 Descending Kansas City Center
Wed 10:32:40 PM 37.7789 -89.8736 337° Northwest 341 392 21,300 -2,213 Descending Kansas City Center
Wed 10:33:41 PM 37.8694 -89.9239 336° Northwest 327 376 19,000 -2,222 Descending Kansas City Center
Wed 10:34:01 PM 37.8925 -89.8806 56° Northeast 323 372 18,300 -1,800 Descending FAA TRACON SMA TRACON (SMA)
Wed 10:34:21 PM 37.9169 -89.8956 334° Northwest 322 371 17,800 -2,308 Descending FAA TRACON SMA TRACON (SMA)
Wed 10:34:40 PM 37.9500 -89.9117 339° North 326 375 16,800 -2,550 Descending FAA TRACON SMA TRACON (SMA)
Wed 10:35:01 PM 37.9744 -89.9283 332° Northwest 327 376 16,100 -2,049 Descending FAA TRACON SMA TRACON (SMA)
Wed 10:35:21 PM 37.9997 -89.9417 337° Northwest 323 372 15,400 -2,250 Descending FAA TRACON SMA TRACON (SMA)
Wed 10:35:41 PM 38.0300 -89.9611 333° Northwest 317 365 14,600 -2,154 Descending FAA TRACON SMA TRACON (SMA)
Wed 10:36:00 PM 38.0550 -89.9728 340° North 312 359 14,000 -1,950 Descending FAA TRACON SMA TRACON (SMA)
Wed 10:36:21 PM 38.0794 -89.9858 337° Northwest 308 354 13,300 -2,195 Descending FAA TRACON SMA TRACON (SMA)
Wed 10:36:41 PM 38.1083 -90.0042 333° Northwest 303 349 12,500 -2,250 Descending FAA TRACON SMA TRACON (SMA)
Wed 10:37:01 PM 38.1331 -90.0144 342° North 302 348 11,800 -2,154 Descending FAA TRACON SMA TRACON (SMA)
Wed 10:37:20 PM 38.1608 -90.0144 360° North 312 359 11,100 -1,800 Descending FAA TRACON SMA TRACON (SMA)
Wed 10:37:41 PM 38.1917 -90.0239 346° North 306 352 10,600 -1,171 Descending FAA TRACON SMA TRACON (SMA)
Wed 10:38:01 PM 38.2164 -90.0278 353° North 294 338 10,300 -1,077 Descending FAA TRACON SMA TRACON (SMA)
Wed 10:38:20 PM 38.2400 -90.0333 350° North 285 328 9,900 -1,200 Descending FAA TRACON SMA TRACON (SMA)
Wed 10:38:41 PM 38.2683 -90.0403 349° North 273 314 9,500 -1,317 Descending FAA TRACON SMA TRACON (SMA)
Wed 10:39:01 PM 38.2914 -90.0439 353° North 270 311 9,000 -1,350 Descending FAA TRACON SMA TRACON (SMA)
Wed 10:39:21 PM 38.3133 -90.0497 348° North 266 306 8,600 -1,500 Descending FAA TRACON SMA TRACON (SMA)
Wed 10:39:41 PM 38.3414 -90.0564 349° North 264 304 8,000 -1,200 Descending FAA TRACON SMA TRACON (SMA)
Wed 10:40:01 PM 38.3633 -90.0611 350° North 265 305 7,800 -1,200 Descending FAA TRACON SMA TRACON (SMA)
Wed 10:40:21 PM 38.3853 -90.0658 350° North 262 302 7,200 -1,800 Descending FAA TRACON SMA TRACON (SMA)
Wed 10:40:41 PM 38.4131 -90.0717 351° North 263 303 6,600 -1,692 Descending FAA TRACON SMA TRACON (SMA)
Wed 10:41:00 PM 38.4353 -90.0769 349° North 261 300 6,100 -1,500 Descending FAA TRACON SMA TRACON (SMA)
Wed 10:41:21 PM 38.4567 -90.0825 349° North 260 299 5,600 -1,756 Descending FAA TRACON SMA TRACON (SMA)
Wed 10:41:41 PM 38.4844 -90.0881 351° North 261 300 4,900 -1,950 Descending FAA TRACON SMA TRACON (SMA)
Wed 10:42:01 PM 38.5064 -90.0936 349° North 263 303 4,300 -1,692 Descending FAA TRACON SMA TRACON (SMA)
Wed 10:42:20 PM 38.5294 -90.0981 351° North 269 310 3,800 -1,200 Descending FAA TRACON SMA TRACON (SMA)
Wed 10:42:41 PM 38.5569 -90.1044 350° North 265 305 3,500 -439 Descending FAA TRACON SMA TRACON (SMA)
Wed 10:43:01 PM 38.5775 -90.1089 350° North 251 289 3,500  Level FAA TRACON SMA TRACON (SMA)
Wed 10:43:20 PM 38.5956 -90.1194 335° Northwest 237 273 3,500  Level FAA TRACON SMA TRACON (SMA)
Wed 10:43:41 PM 38.6156 -90.1375 325° Northwest 227 261 3,500 -146 Level FAA TRACON SMA TRACON (SMA)
Wed 10:44:01 PM 38.6317 -90.1508 327° Northwest 226 260 3,400 -600 Descending FAA TRACON SMA TRACON (SMA)
Wed 10:44:21 PM 38.6469 -90.1642 326° Northwest 221 254 3,100 -769 Descending FAA TRACON SMA TRACON (SMA)
Wed 10:44:40 PM 38.6658 -90.1797 327° Northwest 211 243 2,900 -300 Descending FAA TRACON SMA TRACON (SMA)
Wed 10:45:01 PM 38.6797 -90.1908 328° Northwest 196 226 2,900 -439 Level FAA TRACON SMA TRACON (SMA)
Wed 10:45:21 PM 38.6911 -90.2008 326° Northwest 169 194 2,600 -1,350 Descending FAA TRACON SMA TRACON (SMA)
Wed 10:45:41 PM 38.7000 -90.2167 306° West 147 169 2,000 -1,538 Descending FAA TRACON SMA TRACON (SMA)
Wed 10:46:00 PM 38.7067 -90.2292 304° West 140 161 1,600 -1,050 Descending FAA TRACON SMA TRACON (SMA)
Wed 10:46:21 PM 38.7136 -90.2439 301° West 128 147 1,300 -732 Descending FAA TRACON SMA TRACON (SMA)
Wed 10:46:41 PM 38.7194 -90.2553 303° West 122 140 1,100 -615 Descending FAA TRACON SMA TRACON (SMA)
Wed 10:47:00 PM 38.7247 -90.2667 301° West 122 140 900 -750 Descending FAA TRACON SMA TRACON (SMA)
Wed 10:47:21 PM 38.7328 -90.2811 306° West 127 146 600 -857 Descending FAA TRACON SMA TRACON (SMA)
Wed 10:49:00 PM 38.7487 -90.3700 270° West  Level Estimated

Login

Don't have an account? Register now (free) for customized features, flight alerts, and more!